Time;durP1;ratioP1;P1;durP2;ratioP2;P2;SDS_P1;SDS_P2;PMS_P1;PMS_P2;Temp;Humidity;BMP_temperature;BMP_pressure;BME280_temperature;BME280_humidity;BME280_pressure;Samples;Min_cycle;Max_cycle;Signal;HPM_P1;HPM_P2
2022/10/14 00:00:15;;;;;;;6.82;4.93;;;13.30;99.90;;;;;;5025085;28;20395;-71
2022/10/14 00:02:40;;;;;;;5.25;4.75;;;13.20;99.90;;;;;;5017371;28;20432;-71
2022/10/14 00:05:07;;;;;;;6.80;5.00;;;13.30;99.90;;;;;;5021963;28;20430;-71
2022/10/14 00:07:33;;;;;;;6.13;4.80;;;13.20;99.90;;;;;;5029004;28;20417;-72
2022/10/14 00:09:58;;;;;;;7.05;4.90;;;13.20;99.90;;;;;;5020868;28;20391;-72
2022/10/14 00:12:24;;;;;;;6.30;4.40;;;13.20;99.90;;;;;;5027100;28;20936;-71
2022/10/14 00:14:49;;;;;;;7.70;5.00;;;13.30;99.90;;;;;;5023755;28;20392;-72
2022/10/14 00:17:15;;;;;;;9.30;5.10;;;13.30;99.90;;;;;;5025402;28;20494;-72
2022/10/14 00:19:40;;;;;;;6.73;4.60;;;13.20;99.90;;;;;;5027186;28;20821;-74
2022/10/14 00:22:06;;;;;;;4.90;4.40;;;13.20;99.90;;;;;;5018580;28;20435;-72
2022/10/14 00:24:32;;;;;;;6.53;4.80;;;13.20;99.90;;;;;;5027582;28;20445;-72
2022/10/14 00:26:57;;;;;;;4.85;4.35;;;13.20;99.90;;;;;;5022127;28;20783;-72
2022/10/14 00:29:23;;;;;;;7.97;5.20;;;13.30;99.90;;;;;;5020506;28;20411;-72
2022/10/14 00:31:50;;;;;;;7.67;4.93;;;13.30;99.90;;;;;;5023907;28;20407;-72
2022/10/14 00:34:16;;;;;;;5.53;4.70;;;13.20;99.90;;;;;;5023628;28;20407;-72
2022/10/14 00:36:42;;;;;;;4.90;4.50;;;13.20;99.90;;;;;;5028896;28;20403;-72
2022/10/14 00:39:08;;;;;;;7.05;4.60;;;13.10;99.90;;;;;;5019413;28;20436;-72
2022/10/14 00:41:35;;;;;;;6.28;4.70;;;13.10;99.90;;;;;;5020407;28;20919;-72
2022/10/14 00:44:26;;;;;;;4.85;4.35;;;13.20;99.90;;;;;;5025615;28;20410;-72
2022/10/14 00:46:53;;;;;;;5.95;4.70;;;13.10;99.90;;;;;;5025321;28;20418;-72
2022/10/14 00:49:35;;;;;;;6.18;4.50;;;13.10;99.90;;;;;;5022838;28;20497;-72
2022/10/14 00:52:04;;;;;;;7.72;4.50;;;13.10;99.90;;;;;;5016761;28;20389;-72
2022/10/14 00:54:47;;;;;;;5.60;5.00;;;13.00;99.90;;;;;;5025041;28;20395;-72
2022/10/14 00:57:14;;;;;;;6.82;4.93;;;13.20;99.90;;;;;;5024897;28;20468;-72
2022/10/14 00:59:40;;;;;;;4.85;4.30;;;13.10;99.90;;;;;;5013997;28;20408;-72
2022/10/14 01:02:06;;;;;;;6.05;4.50;;;13.10;99.90;;;;;;5025317;28;20403;-72
2022/10/14 01:04:34;;;;;;;6.88;4.70;;;13.10;99.90;;;;;;5027416;28;20924;-72
2022/10/14 01:07:22;;;;;;;4.78;4.30;;;13.20;99.90;;;;;;5022135;28;20434;-71
2022/10/14 01:10:15;;;;;;;5.50;4.75;;;13.20;99.90;;;;;;5017917;28;20863;-72
2022/10/14 01:13:18;;;;;;;5.93;4.63;;;13.20;99.90;;;;;;5021268;28;20430;-72
2022/10/14 01:15:51;;;;;;;5.55;4.35;;;13.20;99.90;;;;;;5021702;28;20397;-72
2022/10/14 01:18:32;;;;;;;4.93;3.95;;;13.20;99.90;;;;;;5026001;28;20402;-72
2022/10/14 01:21:06;;;;;;;5.00;4.60;;;13.20;99.90;;;;;;5018125;28;20409;-72
2022/10/14 01:23:50;;;;;;;5.63;4.53;;;13.20;99.90;;;;;;5026834;28;20441;-72
2022/10/14 01:26:38;;;;;;;4.80;4.37;;;13.20;99.90;;;;;;5020439;28;20833;-72
2022/10/14 01:29:41;;;;;;;7.15;4.35;;;13.10;99.90;;;;;;5025811;28;20402;-72
2022/10/14 01:32:26;;;;;;;5.63;4.70;;;13.00;99.90;;;;;;5029105;28;20417;-72
2022/10/14 01:35:09;;;;;;;8.40;4.40;;;13.10;99.90;;;;;;5027107;28;20451;-72
2022/10/14 01:37:38;;;;;;;4.80;4.40;;;13.00;99.90;;;;;;5020325;28;20916;-72
2022/10/14 01:40:15;;;;;;;6.57;4.57;;;13.10;99.90;;;;;;5030986;28;20414;-72
2022/10/14 01:42:43;;;;;;;6.22;4.30;;;13.10;99.90;;;;;;5022690;28;20410;-72
2022/10/14 01:45:16;;;;;;;5.68;4.70;;;13.10;99.90;;;;;;5028695;28;20441;-72
2022/10/14 01:47:42;;;;;;;6.75;4.32;;;13.00;99.90;;;;;;5029302;28;20552;-72
2022/10/14 01:50:14;;;;;;;5.40;4.40;;;13.10;99.90;;;;;;5022864;28;20403;-72
2022/10/14 01:52:46;;;;;;;5.45;4.40;;;13.20;99.90;;;;;;5023946;28;20410;-72
2022/10/14 01:55:16;;;;;;;6.07;4.50;;;13.10;99.90;;;;;;5031267;28;20469;-72
2022/10/14 01:57:43;;;;;;;5.63;4.43;;;13.10;99.90;;;;;;5030388;28;20414;-72
2022/10/14 02:00:10;;;;;;;4.63;4.10;;;13.10;99.90;;;;;;5022468;28;20409;-72
2022/10/14 02:02:36;;;;;;;5.60;4.40;;;13.10;99.90;;;;;;5024538;28;20501;-72
2022/10/14 02:05:08;;;;;;;6.10;4.63;;;13.00;99.90;;;;;;5030297;28;20402;-72
2022/10/14 02:07:47;;;;;;;5.65;4.20;;;13.10;99.90;;;;;;5025185;28;20415;-72
2022/10/14 02:10:34;;;;;;;5.20;4.05;;;13.20;99.90;;;;;;5030928;28;20909;-72
2022/10/14 02:13:13;;;;;;;4.88;4.38;;;13.20;99.90;;;;;;5020946;28;20408;-72
2022/10/14 02:15:52;;;;;;;6.23;4.80;;;13.20;99.90;;;;;;5018752;28;20461;-72
2022/10/14 02:18:37;;;;;;;6.07;4.57;;;13.20;99.90;;;;;;5027376;28;21095;-72
2022/10/14 02:21:09;;;;;;;5.07;3.90;;;13.20;99.90;;;;;;5020234;28;20890;-72
2022/10/14 02:23:40;;;;;;;7.63;4.60;;;13.10;99.90;;;;;;5027280;28;20423;-71
2022/10/14 02:26:07;;;;;;;6.20;4.70;;;13.10;99.90;;;;;;5030794;28;20504;-72
2022/10/14 02:28:33;;;;;;;5.93;4.07;;;13.10;99.90;;;;;;5020249;28;20474;-72
2022/10/14 02:31:04;;;;;;;6.60;4.50;;;13.10;99.90;;;;;;5024648;28;20407;-72
2022/10/14 02:33:39;;;;;;;6.88;4.60;;;13.20;99.90;;;;;;5020423;28;20385;-72
2022/10/14 02:36:07;;;;;;;6.53;4.35;;;13.20;99.90;;;;;;5023569;28;20407;-71
2022/10/14 02:38:34;;;;;;;5.38;4.50;;;13.10;99.90;;;;;;5006065;28;20491;-72
2022/10/14 02:41:03;;;;;;;4.70;4.00;;;13.10;99.90;;;;;;5009220;28;20442;-72
2022/10/14 02:43:28;;;;;;;6.07;4.68;;;13.10;99.90;;;;;;5020285;28;20404;-72
2022/10/14 02:46:00;;;;;;;5.30;3.83;;;13.10;99.90;;;;;;5026416;28;20496;-72
2022/10/14 02:48:26;;;;;;;6.00;4.20;;;13.10;99.90;;;;;;5023120;28;20432;-72
2022/10/14 02:50:51;;;;;;;5.05;4.53;;;13.10;99.90;;;;;;5021051;28;20407;-72
2022/10/14 02:53:17;;;;;;;6.03;4.10;;;13.20;99.90;;;;;;5030291;28;20407;-72
2022/10/14 02:55:42;;;;;;;5.47;4.27;;;13.20;99.90;;;;;;5026039;28;20408;-72
2022/10/14 02:58:08;;;;;;;5.33;3.90;;;13.20;99.90;;;;;;5029020;28;20446;-72
2022/10/14 03:00:34;;;;;;;4.45;4.05;;;13.10;99.90;;;;;;5018611;28;20510;-72
2022/10/14 03:02:59;;;;;;;5.53;4.40;;;13.10;99.90;;;;;;5023413;28;20839;-72
2022/10/14 03:05:25;;;;;;;4.05;3.65;;;13.10;99.90;;;;;;5025855;28;20443;-72
2022/10/14 03:07:50;;;;;;;6.00;3.60;;;13.10;99.90;;;;;;5030149;28;20414;-72
2022/10/14 03:10:16;;;;;;;4.70;3.93;;;13.20;99.90;;;;;;5022214;28;20395;-72
2022/10/14 03:12:42;;;;;;;4.47;3.90;;;13.20;99.90;;;;;;5025677;28;20406;-72
2022/10/14 03:15:08;;;;;;;6.10;4.60;;;13.20;99.90;;;;;;5025122;28;20426;-72
2022/10/14 03:17:34;;;;;;;4.75;4.05;;;13.20;99.90;;;;;;5028172;28;20496;-72
2022/10/14 03:19:59;;;;;;;5.57;4.10;;;13.20;99.90;;;;;;5028517;28;20553;-72
2022/10/14 03:22:25;;;;;;;5.10;3.90;;;13.20;99.90;;;;;;5023039;28;20896;-72
2022/10/14 03:24:51;;;;;;;5.13;3.97;;;13.10;99.90;;;;;;5022161;28;20437;-72
2022/10/14 03:27:16;;;;;;;5.70;4.10;;;13.10;99.90;;;;;;5026076;28;20576;-72
2022/10/14 03:29:42;;;;;;;5.03;3.90;;;13.10;99.90;;;;;;5028228;28;20407;-72
2022/10/14 03:32:07;;;;;;;4.87;3.60;;;13.10;99.90;;;;;;5021739;28;20402;-72
2022/10/14 03:34:33;;;;;;;4.30;3.50;;;13.10;99.90;;;;;;5023746;28;20483;-72
2022/10/14 03:36:58;;;;;;;5.03;3.60;;;13.20;99.90;;;;;;5017560;28;22238;-72
2022/10/14 03:39:24;;;;;;;5.23;4.73;;;13.20;99.90;;;;;;5024409;28;20418;-72
2022/10/14 03:41:49;;;;;;;5.27;4.20;;;13.20;99.90;;;;;;5019408;28;20450;-72
2022/10/14 03:44:15;;;;;;;7.13;4.50;;;13.20;99.90;;;;;;5024836;28;20485;-72
2022/10/14 03:46:41;;;;;;;5.22;4.18;;;13.10;99.90;;;;;;5026623;28;20973;-71
2022/10/14 03:49:06;;;;;;;5.53;4.03;;;13.20;99.90;;;;;;5022952;28;20941;-72
2022/10/14 03:51:32;;;;;;;4.83;4.33;;;13.20;99.90;;;;;;5028859;28;20926;-72
2022/10/14 03:53:57;;;;;;;5.68;4.47;;;13.20;99.90;;;;;;5029767;28;20402;-72
2022/10/14 03:56:23;;;;;;;5.50;4.20;;;13.20;99.90;;;;;;5031457;28;20486;-72
2022/10/14 03:58:49;;;;;;;5.60;3.80;;;13.20;99.90;;;;;;5019216;28;20831;-72
2022/10/14 04:01:15;;;;;;;5.43;4.05;;;13.20;99.90;;;;;;5029419;28;20410;-72
2022/10/14 04:03:40;;;;;;;4.90;4.40;;;13.20;99.90;;;;;;5022312;28;20390;-72
2022/10/14 04:06:06;;;;;;;4.77;4.10;;;13.20;99.90;;;;;;5029603;28;20461;-72
2022/10/14 04:08:31;;;;;;;7.23;4.50;;;13.20;99.90;;;;;;5024455;28;20411;-72
2022/10/14 04:10:57;;;;;;;5.25;4.18;;;13.10;99.90;;;;;;5029417;28;20815;-72
2022/10/14 04:13:23;;;;;;;6.10;4.70;;;13.10;99.90;;;;;;5019326;28;20921;-72
2022/10/14 04:15:49;;;;;;;5.15;3.80;;;13.20;99.90;;;;;;5015515;28;20396;-72
2022/10/14 04:18:14;;;;;;;5.70;4.10;;;13.10;99.90;;;;;;5027349;28;20403;-72
2022/10/14 04:20:40;;;;;;;5.40;4.50;;;13.10;99.90;;;;;;5018805;28;20462;-72
2022/10/14 04:23:06;;;;;;;4.40;3.83;;;13.20;99.90;;;;;;5028002;28;20411;-72
2022/10/14 04:25:32;;;;;;;5.30;3.85;;;13.10;99.90;;;;;;5019989;28;20495;-72
2022/10/14 04:27:58;;;;;;;4.38;3.90;;;13.20;99.90;;;;;;5011203;28;20864;-72
2022/10/14 04:30:23;;;;;;;4.35;4.00;;;13.10;99.90;;;;;;5029791;28;20406;-71
2022/10/14 04:32:49;;;;;;;4.78;4.38;;;13.20;99.90;;;;;;5039919;28;20784;-72
2022/10/14 04:35:15;;;;;;;5.90;4.70;;;13.20;99.90;;;;;;5039737;28;20390;-72
2022/10/14 04:37:40;;;;;;;4.70;4.30;;;13.20;99.90;;;;;;5022029;28;20452;-72
2022/10/14 04:40:06;;;;;;;5.30;4.30;;;13.10;99.90;;;;;;5027179;28;20462;-72
2022/10/14 04:42:31;;;;;;;5.20;4.70;;;13.20;99.90;;;;;;5030937;28;20405;-72
2022/10/14 04:44:57;;;;;;;5.50;4.15;;;13.10;99.90;;;;;;5032653;28;20401;-72
2022/10/14 04:47:23;;;;;;;4.80;4.33;;;13.20;99.90;;;;;;5031228;28;20425;-72
2022/10/14 04:49:48;;;;;;;4.73;3.43;;;13.20;99.90;;;;;;5039617;28;20844;-72
2022/10/14 04:52:14;;;;;;;8.38;5.10;;;13.20;99.90;;;;;;5035960;28;20414;-72
2022/10/14 04:54:39;;;;;;;5.50;4.10;;;13.30;99.90;;;;;;5039788;28;20482;-72
2022/10/14 04:57:05;;;;;;;6.83;4.90;;;13.30;99.90;;;;;;5034390;28;20433;-72
2022/10/14 04:59:30;;;;;;;6.00;4.10;;;13.30;99.90;;;;;;5027516;28;20457;-72
2022/10/14 05:01:56;;;;;;;4.70;4.00;;;13.40;99.90;;;;;;5025826;28;20410;-72
2022/10/14 05:04:21;;;;;;;4.40;4.00;;;13.40;99.90;;;;;;5031755;28;21002;-72
2022/10/14 05:06:47;;;;;;;7.93;4.30;;;13.40;99.90;;;;;;5037977;28;20554;-72
2022/10/14 05:09:12;;;;;;;5.50;4.53;;;13.40;99.90;;;;;;5046292;28;20399;-72
2022/10/14 05:11:38;;;;;;;5.30;3.80;;;13.40;99.90;;;;;;5021164;28;20917;-72
2022/10/14 05:14:03;;;;;;;5.83;3.80;;;13.30;99.90;;;;;;5022260;28;20887;-72
2022/10/14 05:16:29;;;;;;;4.90;3.95;;;13.40;99.90;;;;;;5033421;28;20422;-72
2022/10/14 05:18:55;;;;;;;4.65;3.80;;;13.30;99.90;;;;;;5045576;28;20957;-72
2022/10/14 05:21:20;;;;;;;6.37;4.50;;;13.30;99.90;;;;;;5030993;28;20398;-72
2022/10/14 05:23:46;;;;;;;4.50;3.87;;;13.30;99.90;;;;;;5027541;28;20423;-72
2022/10/14 05:26:11;;;;;;;6.25;4.20;;;13.40;99.90;;;;;;5033158;28;20864;-72
2022/10/14 05:28:37;;;;;;;4.57;3.72;;;13.30;99.90;;;;;;5042113;28;20390;-73
2022/10/14 05:31:03;;;;;;;4.40;4.00;;;13.30;99.90;;;;;;5033315;28;20398;-73
2022/10/14 05:33:29;;;;;;;6.78;4.40;;;13.30;99.90;;;;;;5029212;28;20458;-73
2022/10/14 05:35:55;;;;;;;5.30;4.00;;;13.40;99.90;;;;;;5029199;28;20482;-72
2022/10/14 05:38:33;;;;;;;6.10;4.60;;;13.50;99.90;;;;;;5033707;28;20403;-72
2022/10/14 05:40:58;;;;;;;6.32;4.20;;;13.40;99.90;;;;;;5024601;28;20403;-73
2022/10/14 05:43:24;;;;;;;4.60;4.20;;;13.40;99.90;;;;;;5026295;28;20436;-72
2022/10/14 05:45:50;;;;;;;6.50;4.72;;;13.50;99.90;;;;;;5030879;28;20391;-72
2022/10/14 05:48:16;;;;;;;6.03;4.45;;;13.40;99.90;;;;;;5024647;28;20518;-72
2022/10/14 05:50:42;;;;;;;6.60;4.30;;;13.40;99.90;;;;;;5029763;28;20470;-73
2022/10/14 05:53:08;;;;;;;4.60;4.20;;;13.40;99.90;;;;;;5030255;28;20834;-73
2022/10/14 05:55:34;;;;;;;5.25;4.28;;;13.40;99.90;;;;;;5031068;28;20454;-72
2022/10/14 05:58:00;;;;;;;4.80;4.03;;;13.50;99.90;;;;;;5027901;28;20493;-73
2022/10/14 06:00:25;;;;;;;5.60;4.57;;;13.50;99.90;;;;;;5029486;28;20404;-73
2022/10/14 06:02:51;;;;;;;4.70;4.20;;;13.50;99.90;;;;;;5025784;28;20419;-73
2022/10/14 06:05:16;;;;;;;4.95;4.10;;;13.50;99.90;;;;;;5004734;28;20403;-72
2022/10/14 06:07:42;;;;;;;4.90;4.20;;;13.50;99.90;;;;;;5028740;28;20468;-73
2022/10/14 06:10:09;;;;;;;5.20;4.30;;;13.40;99.90;;;;;;5024053;28;20423;-73
2022/10/14 06:12:35;;;;;;;4.60;4.10;;;13.50;99.90;;;;;;5030574;28;20407;-73
2022/10/14 06:15:00;;;;;;;5.07;4.57;;;13.50;99.90;;;;;;5028946;28;20469;-73
2022/10/14 06:17:27;;;;;;;7.97;4.70;;;13.50;99.90;;;;;;5015570;28;20489;-73
2022/10/14 06:19:53;;;;;;;6.63;4.88;;;13.40;99.90;;;;;;5044061;28;20403;-71
2022/10/14 06:22:18;;;;;;;5.80;4.60;;;13.40;99.90;;;;;;5031841;28;20583;-71
2022/10/14 06:24:44;;;;;;;5.20;4.45;;;13.40;99.90;;;;;;5027588;28;20433;-71
2022/10/14 06:27:09;;;;;;;5.17;4.20;;;13.50;99.90;;;;;;5027156;28;20845;-72
2022/10/14 06:29:37;;;;;;;7.27;4.53;;;13.50;99.90;;;;;;5024741;28;20941;-73
2022/10/14 06:32:07;;;;;;;4.60;4.00;;;13.50;99.90;;;;;;5023842;28;20405;-74
2022/10/14 06:34:33;;;;;;;5.05;4.50;;;13.60;99.90;;;;;;5021083;28;20403;-73
2022/10/14 06:36:59;;;;;;;5.03;4.25;;;13.60;99.90;;;;;;5031996;28;20413;-73
2022/10/14 06:39:25;;;;;;;4.72;4.28;;;13.60;99.90;;;;;;5032529;28;20391;-73
2022/10/14 06:41:51;;;;;;;5.17;3.63;;;13.70;99.90;;;;;;5032667;28;20448;-73
2022/10/14 06:44:17;;;;;;;5.20;3.70;;;13.50;99.90;;;;;;5032133;28;20896;-72
2022/10/14 06:46:43;;;;;;;6.83;4.70;;;13.50;99.90;;;;;;5014610;28;20403;-73
2022/10/14 06:49:08;;;;;;;5.30;4.00;;;13.40;99.90;;;;;;5014704;28;20459;-73
2022/10/14 06:51:37;;;;;;;6.05;4.25;;;13.40;99.90;;;;;;5031448;28;20419;-73
2022/10/14 06:54:03;;;;;;;5.88;4.03;;;13.50;99.90;;;;;;5024741;28;20403;-73
2022/10/14 06:56:28;;;;;;;5.05;4.40;;;13.50;99.90;;;;;;5015813;28;20379;-73
2022/10/14 06:58:55;;;;;;;4.77;4.10;;;13.50;99.90;;;;;;5032683;28;20920;-71
2022/10/14 07:01:21;;;;;;;5.70;4.28;;;13.60;99.90;;;;;;5032225;28;20375;-72
2022/10/14 07:03:46;;;;;;;6.22;4.28;;;13.50;99.90;;;;;;5032005;28;20447;-71
2022/10/14 07:06:14;;;;;;;8.18;4.50;;;13.50;99.90;;;;;;5031545;28;20430;-71
2022/10/14 07:08:39;;;;;;;5.63;4.50;;;13.60;99.90;;;;;;5032070;28;20441;-71
2022/10/14 07:11:06;;;;;;;5.57;4.20;;;13.70;99.90;;;;;;5032171;28;20387;-71
2022/10/14 07:13:33;;;;;;;6.40;4.40;;;13.70;99.90;;;;;;5031682;28;20383;-71
2022/10/14 07:15:58;;;;;;;4.72;3.83;;;13.60;99.90;;;;;;5014077;28;20962;-71
2022/10/14 07:18:24;;;;;;;4.07;3.70;;;13.70;99.90;;;;;;5031602;28;20474;-71
2022/10/14 07:20:50;;;;;;;5.90;3.87;;;13.80;99.90;;;;;;5031925;28;20514;-71
2022/10/14 07:23:15;;;;;;;8.48;4.28;;;13.60;99.90;;;;;;5013159;28;20425;-71
2022/10/14 07:25:41;;;;;;;4.87;4.20;;;13.70;99.90;;;;;;5031507;28;20379;-71
2022/10/14 07:28:07;;;;;;;4.50;3.80;;;13.70;99.90;;;;;;5028346;28;20407;-72
2022/10/14 07:30:32;;;;;;;5.73;4.00;;;13.70;99.90;;;;;;5013670;28;20380;-72
2022/10/14 07:32:58;;;;;;;5.50;3.70;;;13.80;99.90;;;;;;5030349;28;20544;-72
2022/10/14 07:35:25;;;;;;;3.60;3.30;;;13.80;99.90;;;;;;5031033;28;20429;-72
2022/10/14 07:37:53;;;;;;;5.03;3.70;;;13.90;99.90;;;;;;5013813;28;20418;-72
2022/10/14 07:40:18;;;;;;;4.90;4.10;;;13.90;99.90;;;;;;5031153;28;20399;-72
2022/10/14 07:42:44;;;;;;;5.63;3.80;;;14.00;99.90;;;;;;5013504;28;20445;-72
2022/10/14 07:45:15;;;;;;;4.93;3.80;;;14.10;99.90;;;;;;5030590;28;20781;-72
2022/10/14 07:47:41;;;;;;;5.70;4.35;;;14.00;99.90;;;;;;5030997;28;20439;-72
2022/10/14 07:50:08;;;;;;;4.70;3.60;;;14.10;99.90;;;;;;5031375;28;20465;-72
2022/10/14 07:52:33;;;;;;;4.47;3.53;;;14.10;99.90;;;;;;5030893;28;20870;-72
2022/10/14 07:54:59;;;;;;;5.30;3.70;;;14.00;99.90;;;;;;5031343;28;20391;-71
2022/10/14 07:57:26;;;;;;;4.57;4.17;;;14.10;99.90;;;;;;5031251;28;20462;-72
2022/10/14 07:59:52;;;;;;;7.28;4.03;;;14.10;99.90;;;;;;5030460;28;20465;-72
2022/10/14 08:02:18;;;;;;;6.07;3.60;;;14.10;99.90;;;;;;5030974;28;20940;-72
2022/10/14 08:04:45;;;;;;;4.30;3.90;;;14.00;99.90;;;;;;5029173;28;20406;-73
2022/10/14 08:07:13;;;;;;;4.60;4.20;;;14.10;99.90;;;;;;5045271;28;20495;-73
2022/10/14 08:09:39;;;;;;;4.40;3.60;;;14.10;99.90;;;;;;5043602;28;20389;-73
2022/10/14 08:12:05;;;;;;;4.25;3.72;;;14.10;99.90;;;;;;5033110;28;20387;-73
2022/10/14 08:14:31;;;;;;;5.75;3.90;;;14.20;99.90;;;;;;5029745;28;20382;-72
2022/10/14 08:16:56;;;;;;;6.40;4.35;;;14.20;99.90;;;;;;5030216;28;20407;-71
2022/10/14 08:19:22;;;;;;;3.90;3.60;;;14.20;99.90;;;;;;5030393;28;20402;-72
2022/10/14 08:21:47;;;;;;;8.73;4.17;;;14.30;99.90;;;;;;5025207;28;20488;-72
2022/10/14 08:24:13;;;;;;;5.82;4.30;;;14.30;99.90;;;;;;5023304;28;20959;-71
2022/10/14 08:26:47;;;;;;;4.13;3.63;;;14.30;99.90;;;;;;5030617;28;20410;-71
2022/10/14 08:29:13;;;;;;;4.63;3.80;;;14.30;99.90;;;;;;5012714;28;20486;-71
2022/10/14 08:31:39;;;;;;;5.40;3.40;;;14.40;99.90;;;;;;5013069;28;20383;-73
2022/10/14 08:34:04;;;;;;;5.53;3.97;;;14.40;99.90;;;;;;5030188;28;20379;-71
2022/10/14 08:36:30;;;;;;;5.78;3.40;;;14.50;99.90;;;;;;5030705;28;20482;-71
2022/10/14 08:38:56;;;;;;;3.90;3.50;;;14.60;99.90;;;;;;5030057;28;20379;-71
2022/10/14 08:41:42;;;;;;;4.45;3.90;;;14.70;99.90;;;;;;5030223;28;20395;-71
2022/10/14 08:44:24;;;;;;;3.83;3.42;;;14.70;99.90;;;;;;5030157;28;20806;-71
2022/10/14 08:47:02;;;;;;;4.72;4.20;;;14.80;99.90;;;;;;5030279;28;20464;-71
2022/10/14 08:49:46;;;;;;;3.90;3.50;;;14.90;99.90;;;;;;5029868;28;20405;-71
2022/10/14 08:52:22;;;;;;;3.70;3.10;;;15.00;99.90;;;;;;5012574;28;20383;-71
2022/10/14 08:54:54;;;;;;;5.10;3.55;;;15.10;99.90;;;;;;5029910;28;20390;-71
2022/10/14 08:57:23;;;;;;;3.35;3.03;;;15.10;99.90;;;;;;5030349;28;20466;-71
2022/10/14 08:59:49;;;;;;;6.00;3.20;;;15.20;99.90;;;;;;5030194;28;20387;-71
2022/10/14 09:02:44;;;;;;;5.65;3.20;;;15.30;99.90;;;;;;5029979;28;20455;-70
2022/10/14 09:05:15;;;;;;;2.88;2.67;;;15.40;99.90;;;;;;5029781;28;20426;-70
2022/10/14 09:07:42;;;;;;;4.90;3.00;;;15.40;99.90;;;;;;5029924;28;20415;-71
2022/10/14 09:10:14;;;;;;;3.55;2.75;;;15.60;99.90;;;;;;5029779;28;20398;-71
2022/10/14 09:12:41;;;;;;;4.40;2.10;;;15.70;99.90;;;;;;5043317;28;20375;-71
2022/10/14 09:15:19;;;;;;;4.10;2.20;;;15.80;99.90;;;;;;5046553;28;20413;-71
2022/10/14 09:18:06;;;;;;;3.05;2.80;;;15.90;99.90;;;;;;5049910;28;20389;-71
2022/10/14 09:20:31;;;;;;;3.60;3.30;;;15.90;99.90;;;;;;5037075;28;20476;-71
2022/10/14 09:23:03;;;;;;;5.37;3.20;;;15.90;99.90;;;;;;5029079;28;20445;-71
2022/10/14 09:25:32;;;;;;;4.47;3.20;;;15.90;99.90;;;;;;5029887;28;20399;-70
2022/10/14 09:27:58;;;;;;;4.28;2.90;;;16.00;99.90;;;;;;5030178;28;20407;-70
2022/10/14 09:30:24;;;;;;;2.88;1.80;;;16.00;99.90;;;;;;5029956;28;20410;-71
2022/10/14 09:32:53;;;;;;;2.20;2.00;;;16.30;99.90;;;;;;5029777;28;20826;-71
2022/10/14 09:35:23;;;;;;;2.65;1.42;;;16.30;99.90;;;;;;5029531;28;20419;-70
2022/10/14 09:37:49;;;;;;;1.98;1.30;;;16.60;99.90;;;;;;5029816;28;20391;-71
2022/10/14 09:40:27;;;;;;;2.10;1.60;;;16.70;99.90;;;;;;5029850;28;20417;-71
2022/10/14 09:43:08;;;;;;;2.10;1.70;;;16.80;99.90;;;;;;5029716;28;20410;-71
2022/10/14 09:45:55;;;;;;;2.75;1.73;;;16.90;99.90;;;;;;5029789;28;20398;-71
2022/10/14 09:48:43;;;;;;;2.00;1.40;;;16.90;99.90;;;;;;5029838;28;20406;-70
2022/10/14 09:51:16;;;;;;;2.60;1.40;;;17.00;99.90;;;;;;5033668;28;20402;-70
2022/10/14 09:53:48;;;;;;;2.13;1.40;;;17.10;99.90;;;;;;5032915;28;20422;-71
2022/10/14 09:56:14;;;;;;;1.50;1.40;;;17.00;99.90;;;;;;5033395;28;20379;-71
2022/10/14 09:58:55;;;;;;;2.60;1.35;;;17.00;99.90;;;;;;5033322;28;20750;-71
2022/10/14 10:01:33;;;;;;;1.77;1.50;;;17.10;99.90;;;;;;5033480;28;21056;-71
2022/10/14 10:04:31;;;;;;;2.88;1.50;;;17.10;99.90;;;;;;5033024;28;20406;-70
2022/10/14 10:06:59;;;;;;;3.15;1.30;;;17.10;99.90;;;;;;5033121;28;20492;-71
2022/10/14 10:09:25;;;;;;;2.33;1.20;;;17.00;99.90;;;;;;5032007;28;20387;-71
2022/10/14 10:11:51;;;;;;;1.75;1.30;;;17.10;99.90;;;;;;5033217;28;20379;-71
2022/10/14 10:14:27;;;;;;;2.38;1.15;;;17.10;99.90;;;;;;5032312;28;20441;-71
2022/10/14 10:17:08;;;;;;;1.60;1.10;;;17.20;99.90;;;;;;5032980;28;20422;-70
2022/10/14 10:19:39;;;;;;;1.50;1.30;;;17.30;99.90;;;;;;5015292;28;20391;-71
2022/10/14 10:22:27;;;;;;;1.58;1.10;;;17.40;99.90;;;;;;5007423;28;20428;-71
2022/10/14 10:25:02;;;;;;;1.10;1.00;;;17.40;99.90;;;;;;5012972;28;20400;-71
2022/10/14 10:27:35;;;;;;;1.63;1.02;;;17.40;99.90;;;;;;5012986;28;20996;-71
2022/10/14 10:30:23;;;;;;;1.67;1.10;;;17.40;99.90;;;;;;5025412;28;20398;-71
2022/10/14 10:33:11;;;;;;;1.20;1.00;;;17.50;99.90;;;;;;5032101;28;20387;-71
2022/10/14 10:35:42;;;;;;;1.10;1.00;;;17.60;99.90;;;;;;5032651;28;20382;-70
2022/10/14 10:38:11;;;;;;;1.10;0.90;;;17.60;99.90;;;;;;5032650;28;20395;-70
2022/10/14 10:40:46;;;;;;;1.10;1.00;;;17.60;99.90;;;;;;5032661;28;20757;-71
2022/10/14 10:43:26;;;;;;;1.10;1.00;;;17.50;99.90;;;;;;5032596;28;20387;-71
2022/10/14 10:46:12;;;;;;;1.40;0.88;;;17.60;99.90;;;;;;5032015;28;20473;-70
2022/10/14 10:48:53;;;;;;;1.50;0.80;;;17.60;99.90;;;;;;5032568;28;20407;-71
2022/10/14 10:51:28;;;;;;;1.00;0.60;;;17.60;99.90;;;;;;5032480;28;20382;-71
2022/10/14 10:54:02;;;;;;;2.42;0.90;;;17.50;99.90;;;;;;5032144;28;20460;-71
2022/10/14 10:56:42;;;;;;;1.13;0.90;;;17.40;99.90;;;;;;5014793;28;20379;-72
2022/10/14 10:59:45;;;;;;;2.17;0.90;;;17.40;99.90;;;;;;5031807;28;20454;-71
2022/10/14 11:02:57;;;;;;;2.00;1.00;;;17.50;99.90;;;;;;5013837;28;20394;-71
2022/10/14 11:05:51;;;;;;;2.20;1.00;;;17.60;99.90;;;;;;5001244;28;20482;-70
2022/10/14 11:14:38;;;;;;;1.30;1.10;;;17.50;99.90;;;;;;5031398;28;20398;-72
2022/10/14 11:17:19;;;;;;;1.10;1.00;;;17.40;99.90;;;;;;5031849;28;20379;-71
2022/10/14 11:20:03;;;;;;;0.90;0.75;;;17.40;99.90;;;;;;5032033;28;20383;-73
2022/10/14 11:22:47;;;;;;;1.90;1.10;;;17.40;99.90;;;;;;5020552;28;20415;-71
2022/10/14 11:25:21;;;;;;;1.50;1.00;;;17.50;99.90;;;;;;5011908;28;20400;-73
2022/10/14 11:28:05;;;;;;;2.40;0.90;;;17.50;99.90;;;;;;5011962;28;20926;-72
2022/10/14 11:30:36;;;;;;;1.05;0.95;;;17.60;99.90;;;;;;5030472;28;20486;-72
2022/10/14 11:33:10;;;;;;;1.85;1.00;;;17.60;99.90;;;;;;5031449;28;20376;-72
2022/10/14 11:35:59;;;;;;;1.05;0.80;;;17.50;99.90;;;;;;5009455;28;20414;-73
2022/10/14 11:38:59;;;;;;;1.30;0.80;;;17.60;99.90;;;;;;5024493;28;20390;-73
2022/10/14 11:41:49;;;;;;;0.70;0.60;;;17.70;99.90;;;;;;5000714;28;20405;-74
2022/10/14 11:44:55;;;;;;;0.95;0.65;;;17.60;99.90;;;;;;5027638;28;20443;-72
2022/10/14 11:47:31;;;;;;;1.27;0.90;;;17.80;99.90;;;;;;5027781;28;20415;-71
2022/10/14 11:50:16;;;;;;;1.10;0.80;;;17.80;99.90;;;;;;5029682;28;20395;-73
2022/10/14 11:53:15;;;;;;;0.80;0.70;;;17.80;99.90;;;;;;5032468;28;20376;-74
2022/10/14 11:55:46;;;;;;;0.90;0.90;;;17.80;99.90;;;;;;5022853;28;20443;-71
2022/10/14 11:58:19;;;;;;;0.90;0.80;;;17.80;99.90;;;;;;5023682;28;20423;-72
2022/10/14 12:00:48;;;;;;;1.20;0.80;;;17.70;99.90;;;;;;5001509;28;20950;-72
2022/10/14 12:03:42;;;;;;;0.80;0.70;;;17.70;99.90;;;;;;5020218;28;20387;-71
2022/10/14 12:06:18;;;;;;;1.20;0.90;;;17.80;99.90;;;;;;5030053;28;20405;-72
2022/10/14 12:08:55;;;;;;;2.17;0.90;;;17.80;99.90;;;;;;5022773;28;20504;-71
2022/10/14 12:11:42;;;;;;;1.50;0.90;;;17.70;99.90;;;;;;5025365;28;20801;-71
2022/10/14 12:14:50;;;;;;;1.00;0.90;;;17.60;99.90;;;;;;5019236;28;20517;-73
2022/10/14 12:17:30;;;;;;;1.48;0.93;;;17.50;99.90;;;;;;5027247;28;20924;-71
2022/10/14 12:20:06;;;;;;;1.17;0.70;;;17.50;99.90;;;;;;5024752;28;20400;-72
2022/10/14 12:22:32;;;;;;;1.00;0.90;;;17.60;99.90;;;;;;5025313;28;20410;-72
2022/10/14 12:25:06;;;;;;;0.80;0.80;;;17.60;99.90;;;;;;5026320;28;20490;-71
2022/10/14 12:27:32;;;;;;;1.10;0.90;;;17.60;99.90;;;;;;5019281;28;20757;-71
2022/10/14 12:29:58;;;;;;;1.70;0.98;;;17.60;99.90;;;;;;5010712;28;20385;-72
2022/10/14 12:32:30;;;;;;;1.70;1.00;;;17.50;99.90;;;;;;5010670;28;20388;-72
2022/10/14 12:35:00;;;;;;;1.00;0.85;;;17.50;99.90;;;;;;5016246;28;20387;-72
2022/10/14 12:37:33;;;;;;;1.58;1.10;;;17.50;99.90;;;;;;5030068;28;20426;-72
2022/10/14 12:40:02;;;;;;;2.00;1.00;;;17.50;99.90;;;;;;5030031;28;20836;-71
2022/10/14 12:42:43;;;;;;;1.65;1.05;;;17.40;99.90;;;;;;5026257;28;20410;-72
2022/10/14 12:45:18;;;;;;;1.13;1.02;;;17.30;99.90;;;;;;5022821;28;20761;-72
2022/10/14 12:47:45;;;;;;;1.42;1.10;;;17.10;99.90;;;;;;5028226;28;20458;-72
2022/10/14 12:50:13;;;;;;;1.33;1.13;;;17.00;99.90;;;;;;5023455;28;20456;-72
2022/10/14 12:52:39;;;;;;;2.90;1.30;;;17.00;99.90;;;;;;5029971;28;20414;-72
2022/10/14 12:55:15;;;;;;;2.20;1.20;;;17.00;99.90;;;;;;5029988;28;20441;-72
2022/10/14 12:57:41;;;;;;;1.13;1.02;;;17.00;99.90;;;;;;5029740;28;20395;-71
2022/10/14 13:00:22;;;;;;;1.23;1.00;;;17.10;99.90;;;;;;5026834;28;20400;-71
2022/10/14 13:02:55;;;;;;;1.08;0.82;;;17.10;99.90;;;;;;5010356;28;20807;-72
2022/10/14 13:05:32;;;;;;;1.15;1.00;;;17.00;99.90;;;;;;4992626;28;20906;-71
2022/10/14 13:08:19;;;;;;;1.65;0.90;;;17.00;99.90;;;;;;5018766;28;20438;-72
2022/10/14 13:10:53;;;;;;;1.73;0.90;;;17.00;99.90;;;;;;5025208;28;20766;-71
2022/10/14 13:13:37;;;;;;;1.10;1.00;;;17.00;99.90;;;;;;5023250;28;20449;-71